Time;durP1;ratioP1;P1;durP2;ratioP2;P2;SDS_P1;SDS_P2;PMS_P1;PMS_P2;Temp;Humidity;BMP_temperature;BMP_pressure;BME280_temperature;BME280_humidity;BME280_pressure;Samples;Min_cycle;Max_cycle;Signal;HPM_P1;HPM_P2
2022/12/20 00:00:57;;;;;;;9.00;5.45;;;;;;;;;;4971590;28;20026;-56
2022/12/20 00:03:23;;;;;;;12.05;5.90;;;;;;;;;;4979325;28;20026;-55
2022/12/20 00:05:48;;;;;;;10.50;6.03;;;;;;;;;;4976490;28;20038;-56
2022/12/20 00:08:13;;;;;;;9.27;6.03;;;;;;;;;;4975544;28;20057;-56
2022/12/20 00:10:39;;;;;;;14.93;6.18;;;;;;;;;;4974963;28;20026;-58
2022/12/20 00:13:05;;;;;;;10.32;6.55;;;;;;;;;;4974625;28;20046;-58
2022/12/20 00:15:30;;;;;;;16.45;7.07;;;;;;;;;;4973487;28;20015;-58
2022/12/20 00:17:58;;;;;;;11.50;6.88;;;;;;;;;;4973895;28;20381;-58
2022/12/20 00:20:24;;;;;;;10.70;6.50;;;;;;;;;;4965585;28;20030;-58
2022/12/20 00:22:49;;;;;;;13.82;6.85;;;;;;;;;;4957893;28;20039;-56
2022/12/20 00:25:14;;;;;;;10.23;5.88;;;;;;;;;;4980050;28;20066;-58
2022/12/20 00:27:40;;;;;;;14.85;6.47;;;;;;;;;;4972923;28;20023;-56
2022/12/20 00:30:05;;;;;;;11.52;5.78;;;;;;;;;;4976408;28;20109;-55
2022/12/20 00:32:30;;;;;;;13.77;6.40;;;;;;;;;;4975870;28;20022;-55
2022/12/20 00:34:56;;;;;;;9.55;6.15;;;;;;;;;;4975411;28;20022;-56
2022/12/20 00:37:21;;;;;;;10.48;5.97;;;;;;;;;;4963524;28;20033;-55
2022/12/20 00:39:46;;;;;;;8.80;5.80;;;;;;;;;;4975364;28;20331;-56
2022/12/20 00:42:11;;;;;;;11.82;6.18;;;;;;;;;;4971111;28;20465;-56
2022/12/20 00:44:39;;;;;;;12.07;6.30;;;;;;;;;;4968603;28;20556;-55
2022/12/20 00:47:05;;;;;;;11.88;6.75;;;;;;;;;;4974733;28;20030;-56
2022/12/20 00:49:30;;;;;;;11.13;6.18;;;;;;;;;;4965002;28;20077;-56
2022/12/20 00:51:55;;;;;;;11.20;6.20;;;;;;;;;;4974508;28;20630;-56
2022/12/20 00:54:20;;;;;;;9.85;6.35;;;;;;;;;;4979276;28;20054;-56
2022/12/20 00:56:45;;;;;;;9.77;6.07;;;;;;;;;;4976927;28;20632;-56
2022/12/20 00:59:11;;;;;;;13.63;6.20;;;;;;;;;;4977137;28;20755;-56
2022/12/20 01:01:36;;;;;;;12.73;6.63;;;;;;;;;;4976837;28;20491;-55
2022/12/20 01:04:01;;;;;;;11.68;6.05;;;;;;;;;;4978304;28;20058;-55
2022/12/20 01:06:27;;;;;;;8.88;5.38;;;;;;;;;;4981073;28;20031;-56
2022/12/20 01:08:52;;;;;;;11.40;5.35;;;;;;;;;;4978149;28;20046;-56
2022/12/20 01:11:18;;;;;;;12.57;5.30;;;;;;;;;;4968123;28;20526;-56
2022/12/20 01:13:44;;;;;;;10.65;5.70;;;;;;;;;;4980135;28;20062;-56
2022/12/20 01:16:11;;;;;;;10.18;5.75;;;;;;;;;;4978419;28;20054;-56
2022/12/20 01:18:36;;;;;;;12.07;5.85;;;;;;;;;;4979689;28;20027;-56
2022/12/20 01:21:02;;;;;;;11.80;5.82;;;;;;;;;;4976968;28;20033;-56
2022/12/20 01:23:27;;;;;;;7.55;4.97;;;;;;;;;;4964476;28;20121;-57
2022/12/20 01:25:53;;;;;;;12.32;5.90;;;;;;;;;;4976455;28;20452;-56
2022/12/20 01:28:18;;;;;;;12.35;6.93;;;;;;;;;;4977394;28;20022;-55
2022/12/20 01:30:43;;;;;;;9.70;5.72;;;;;;;;;;4974695;28;20026;-56
2022/12/20 01:33:08;;;;;;;8.65;5.18;;;;;;;;;;4976117;28;20073;-56
2022/12/20 01:35:34;;;;;;;15.52;6.30;;;;;;;;;;4979407;28;20548;-55
2022/12/20 01:38:01;;;;;;;8.43;5.72;;;;;;;;;;4976806;28;20019;-57
2022/12/20 01:40:27;;;;;;;12.07;5.45;;;;;;;;;;4967765;28;20024;-56
2022/12/20 01:42:58;;;;;;;11.52;5.55;;;;;;;;;;4977447;28;20027;-55
2022/12/20 01:45:27;;;;;;;8.40;5.00;;;;;;;;;;4956657;28;20042;-56
2022/12/20 01:47:52;;;;;;;8.77;4.97;;;;;;;;;;4973421;28;20029;-56
2022/12/20 01:50:17;;;;;;;7.70;5.05;;;;;;;;;;4976974;28;20018;-56
2022/12/20 01:52:43;;;;;;;11.48;5.53;;;;;;;;;;4955599;28;20057;-56
2022/12/20 01:55:08;;;;;;;9.68;5.55;;;;;;;;;;4974747;28;20118;-56
2022/12/20 01:57:44;;;;;;;11.98;5.30;;;;;;;;;;4968623;28;20034;-56
2022/12/20 02:00:10;;;;;;;9.93;5.53;;;;;;;;;;4961412;28;20046;-56
2022/12/20 02:02:35;;;;;;;8.75;5.65;;;;;;;;;;4960467;28;20030;-57
2022/12/20 02:05:04;;;;;;;10.95;5.50;;;;;;;;;;4981614;28;20069;-56
2022/12/20 02:07:30;;;;;;;10.63;5.63;;;;;;;;;;4978456;28;20029;-55
2022/12/20 02:09:55;;;;;;;8.18;5.20;;;;;;;;;;4975846;28;20030;-56
2022/12/20 02:12:21;;;;;;;8.52;4.82;;;;;;;;;;4973698;28;20023;-56
2022/12/20 02:14:56;;;;;;;10.27;5.40;;;;;;;;;;4974743;28;20028;-57
2022/12/20 02:17:27;;;;;;;8.77;5.13;;;;;;;;;;4970211;28;20712;-56
2022/12/20 02:20:11;;;;;;;8.98;5.15;;;;;;;;;;4974489;28;20248;-56
2022/12/20 02:22:55;;;;;;;10.40;5.03;;;;;;;;;;4978202;28;20038;-56
2022/12/20 02:25:36;;;;;;;8.38;4.88;;;;;;;;;;4984894;28;20049;-56
2022/12/20 02:28:16;;;;;;;8.57;5.13;;;;;;;;;;4976756;28;20027;-55
2022/12/20 02:30:41;;;;;;;;;;;;;;;;;;4970055;28;20493;-56
2022/12/20 02:33:07;;;;;;;8.68;4.85;;;;;;;;;;4975490;28;19914;-56
2022/12/20 02:35:33;;;;;;;10.48;4.80;;;;;;;;;;4972692;28;20058;-56
2022/12/20 02:38:00;;;;;;;10.13;5.10;;;;;;;;;;4976635;28;20026;-56
2022/12/20 02:40:31;;;;;;;8.38;4.95;;;;;;;;;;4977469;28;20132;-56
2022/12/20 02:43:00;;;;;;;8.52;5.53;;;;;;;;;;4977628;28;20058;-56
2022/12/20 02:45:26;;;;;;;12.85;5.75;;;;;;;;;;4966593;28;20116;-55
2022/12/20 02:47:57;;;;;;;8.77;5.75;;;;;;;;;;4955887;28;20018;-56
2022/12/20 02:50:45;;;;;;;9.80;5.63;;;;;;;;;;4971070;28;20033;-56
2022/12/20 02:53:10;;;;;;;13.85;5.95;;;;;;;;;;4967980;28;20543;-56
2022/12/20 02:55:44;;;;;;;9.85;4.88;;;;;;;;;;4964632;28;20030;-56
2022/12/20 02:58:36;;;;;;;11.23;5.78;;;;;;;;;;4965179;28;20029;-56
2022/12/20 03:01:03;;;;;;;6.90;3.95;;;;;;;;;;4969115;28;20027;-55
2022/12/20 03:03:29;;;;;;;9.25;5.22;;;;;;;;;;4967081;28;20021;-56
2022/12/20 03:05:54;;;;;;;12.88;5.32;;;;;;;;;;4973192;28;20045;-56
2022/12/20 03:08:20;;;;;;;12.65;5.43;;;;;;;;;;4964025;28;20072;-57
2022/12/20 03:10:45;;;;;;;12.60;5.45;;;;;;;;;;4971569;28;20481;-56
2022/12/20 03:13:10;;;;;;;7.95;5.07;;;;;;;;;;4973925;28;20026;-56
2022/12/20 03:15:36;;;;;;;11.13;5.15;;;;;;;;;;4972683;28;20503;-56
2022/12/20 03:18:01;;;;;;;10.55;5.05;;;;;;;;;;4968270;28;20084;-56
2022/12/20 03:20:26;;;;;;;9.90;5.18;;;;;;;;;;4981521;28;20026;-56
2022/12/20 03:22:52;;;;;;;9.73;4.93;;;;;;;;;;4978214;28;20629;-55
2022/12/20 03:25:18;;;;;;;9.98;4.65;;;;;;;;;;4968409;28;20046;-56
2022/12/20 03:27:43;;;;;;;8.95;4.82;;;;;;;;;;4973060;28;20022;-55
2022/12/20 03:30:08;;;;;;;7.05;4.90;;;;;;;;;;4970361;28;20037;-56
2022/12/20 03:32:34;;;;;;;8.27;4.65;;;;;;;;;;4976404;28;20034;-56
2022/12/20 03:34:59;;;;;;;10.63;4.95;;;;;;;;;;4977792;28;20331;-56
2022/12/20 03:37:24;;;;;;;9.65;5.10;;;;;;;;;;4976636;28;20022;-55
2022/12/20 03:39:49;;;;;;;9.68;5.15;;;;;;;;;;4975829;28;20027;-55
2022/12/20 03:42:15;;;;;;;7.22;4.85;;;;;;;;;;4973641;28;20041;-56
2022/12/20 03:44:40;;;;;;;11.40;5.43;;;;;;;;;;4971707;28;20034;-56
2022/12/20 03:47:05;;;;;;;8.98;4.70;;;;;;;;;;4968340;28;20046;-55
2022/12/20 03:49:30;;;;;;;11.43;5.00;;;;;;;;;;4970743;28;20015;-56
2022/12/20 03:51:55;;;;;;;12.70;5.65;;;;;;;;;;4976821;28;20039;-56
2022/12/20 03:54:21;;;;;;;11.93;6.05;;;;;;;;;;4984691;28;20022;-56
2022/12/20 03:56:46;;;;;;;9.57;4.97;;;;;;;;;;4975233;28;20029;-56
2022/12/20 03:59:11;;;;;;;13.63;5.10;;;;;;;;;;4978241;28;20011;-55
2022/12/20 04:01:37;;;;;;;9.30;5.78;;;;;;;;;;4974811;28;20140;-57
2022/12/20 04:04:02;;;;;;;8.25;4.65;;;;;;;;;;4968953;28;20106;-56
2022/12/20 04:06:29;;;;;;;7.20;4.97;;;;;;;;;;4977356;28;20069;-56
2022/12/20 04:08:54;;;;;;;10.60;5.07;;;;;;;;;;4977529;28;20759;-55
2022/12/20 04:11:20;;;;;;;11.30;6.00;;;;;;;;;;4978566;28;20626;-55
2022/12/20 04:13:45;;;;;;;7.22;4.53;;;;;;;;;;4969338;28;20085;-56
2022/12/20 04:16:11;;;;;;;9.70;4.70;;;;;;;;;;4974047;28;20023;-56
2022/12/20 04:18:36;;;;;;;7.93;4.25;;;;;;;;;;4974408;28;20018;-55
2022/12/20 04:21:02;;;;;;;10.00;5.10;;;;;;;;;;4976300;28;20062;-56
2022/12/20 04:23:27;;;;;;;10.38;4.40;;;;;;;;;;4975836;28;20042;-56
2022/12/20 04:25:52;;;;;;;9.85;4.60;;;;;;;;;;4973716;28;20651;-56
2022/12/20 04:28:17;;;;;;;9.75;4.53;;;;;;;;;;4975667;28;20426;-55
2022/12/20 04:30:43;;;;;;;12.48;4.97;;;;;;;;;;4974826;28;20658;-58
2022/12/20 04:33:08;;;;;;;11.30;4.85;;;;;;;;;;4980299;28;20060;-57
2022/12/20 04:35:33;;;;;;;7.32;4.35;;;;;;;;;;4982888;28;20030;-57
2022/12/20 04:37:58;;;;;;;8.05;4.68;;;;;;;;;;4975686;28;20393;-58
2022/12/20 04:40:23;;;;;;;8.45;4.30;;;;;;;;;;4977839;28;20118;-56
2022/12/20 04:42:49;;;;;;;12.50;4.55;;;;;;;;;;4980521;28;20102;-58
2022/12/20 04:45:14;;;;;;;8.10;4.38;;;;;;;;;;4976261;28;20130;-57
2022/12/20 04:47:39;;;;;;;9.27;4.72;;;;;;;;;;4978419;28;20027;-56
2022/12/20 04:50:05;;;;;;;11.07;4.63;;;;;;;;;;4972355;28;20025;-56
2022/12/20 04:55:15;;;;;;;9.30;5.25;;;;;;;;;;4978530;28;20072;-57
2022/12/20 04:57:40;;;;;;;9.48;5.10;;;;;;;;;;4980702;28;20018;-56
2022/12/20 05:00:05;;;;;;;9.82;4.80;;;;;;;;;;4981612;28;20397;-57
2022/12/20 05:02:30;;;;;;;8.52;4.90;;;;;;;;;;4971612;28;20489;-57
2022/12/20 05:04:56;;;;;;;9.38;5.00;;;;;;;;;;4974742;28;20069;-57
2022/12/20 05:07:21;;;;;;;12.50;5.00;;;;;;;;;;4977615;28;20044;-56
2022/12/20 05:09:46;;;;;;;9.57;5.15;;;;;;;;;;4978860;28;20030;-57
2022/12/20 05:12:11;;;;;;;8.07;5.13;;;;;;;;;;4976947;28;20319;-57
2022/12/20 05:14:37;;;;;;;9.30;4.60;;;;;;;;;;4974345;28;20296;-57
2022/12/20 05:17:02;;;;;;;9.65;5.05;;;;;;;;;;4974959;28;20131;-57
2022/12/20 05:19:27;;;;;;;8.15;4.20;;;;;;;;;;4975465;28;20035;-57
2022/12/20 05:27:20;;;;;;;7.72;4.60;;;;;;;;;;4974411;28;20140;-57
2022/12/20 05:29:45;;;;;;;7.50;4.70;;;;;;;;;;4975337;28;20425;-57
2022/12/20 05:32:11;;;;;;;9.48;4.78;;;;;;;;;;4973918;28;20964;-57
2022/12/20 05:34:36;;;;;;;9.73;5.35;;;;;;;;;;4975588;28;20344;-57
2022/12/20 05:37:01;;;;;;;9.60;5.07;;;;;;;;;;4980185;28;20030;-57
2022/12/20 05:39:26;;;;;;;8.55;4.60;;;;;;;;;;4974919;28;20033;-57
2022/12/20 05:41:52;;;;;;;12.68;4.93;;;;;;;;;;4979383;28;20031;-57
2022/12/20 05:44:19;;;;;;;13.38;5.90;;;;;;;;;;4968529;28;20030;-58
2022/12/20 05:46:44;;;;;;;14.25;8.07;;;;;;;;;;4972365;28;20180;-57
2022/12/20 05:49:09;;;;;;;25.83;15.32;;;;;;;;;;4973790;28;20117;-57
2022/12/20 05:51:35;;;;;;;11.38;7.80;;;;;;;;;;4974522;28;20177;-56
2022/12/20 05:54:00;;;;;;;22.02;12.52;;;;;;;;;;4971782;28;20366;-57
2022/12/20 05:56:25;;;;;;;10.38;5.78;;;;;;;;;;4970590;28;20400;-57
2022/12/20 05:58:50;;;;;;;13.55;7.55;;;;;;;;;;4972158;28;20031;-57
2022/12/20 06:01:15;;;;;;;18.52;10.82;;;;;;;;;;4974194;28;20181;-57
2022/12/20 06:03:41;;;;;;;46.13;27.33;;;;;;;;;;4970459;28;20278;-57
2022/12/20 06:06:06;;;;;;;15.85;6.95;;;;;;;;;;4972942;28;20250;-57
2022/12/20 06:08:31;;;;;;;8.57;4.50;;;;;;;;;;4971200;28;20027;-57
2022/12/20 06:10:57;;;;;;;10.60;8.05;;;;;;;;;;4976753;28;20134;-57
2022/12/20 06:13:22;;;;;;;10.18;4.70;;;;;;;;;;4982678;28;20041;-57
2022/12/20 06:15:47;;;;;;;9.43;5.57;;;;;;;;;;4973886;28;20033;-57
2022/12/20 06:18:12;;;;;;;10.82;6.10;;;;;;;;;;4973067;28;20401;-56
2022/12/20 06:20:38;;;;;;;10.20;5.07;;;;;;;;;;4975079;28;20042;-57
2022/12/20 06:23:03;;;;;;;11.35;6.03;;;;;;;;;;4956828;28;20041;-57
2022/12/20 06:25:29;;;;;;;10.27;4.90;;;;;;;;;;4978513;28;20097;-57
2022/12/20 06:27:54;;;;;;;9.40;4.70;;;;;;;;;;4973697;28;20055;-57
2022/12/20 06:30:19;;;;;;;8.68;4.50;;;;;;;;;;4977308;28;20037;-57
2022/12/20 06:32:44;;;;;;;9.88;4.90;;;;;;;;;;4969953;28;20019;-57
2022/12/20 06:35:10;;;;;;;6.50;4.00;;;;;;;;;;4978158;28;20034;-57
2022/12/20 06:37:35;;;;;;;10.63;5.53;;;;;;;;;;4967814;28;20434;-57
2022/12/20 06:40:01;;;;;;;8.02;4.45;;;;;;;;;;4976678;28;20154;-56
2022/12/20 06:42:26;;;;;;;10.10;4.53;;;;;;;;;;4970910;28;20038;-56
2022/12/20 06:44:51;;;;;;;10.23;4.60;;;;;;;;;;4976045;28;20066;-56
2022/12/20 06:47:16;;;;;;;9.32;5.05;;;;;;;;;;4976265;28;20475;-56
2022/12/20 06:49:41;;;;;;;9.80;4.68;;;;;;;;;;4977469;28;20106;-57
2022/12/20 06:52:07;;;;;;;9.23;5.20;;;;;;;;;;4972485;28;20035;-57
2022/12/20 06:54:32;;;;;;;9.85;4.53;;;;;;;;;;4977856;28;20315;-57
2022/12/20 06:56:57;;;;;;;9.65;4.55;;;;;;;;;;4979209;28;20349;-56
2022/12/20 06:59:23;;;;;;;6.93;4.50;;;;;;;;;;4966352;28;20366;-56
2022/12/20 07:01:48;;;;;;;6.55;4.38;;;;;;;;;;4971139;28;20102;-56
2022/12/20 07:04:13;;;;;;;9.40;3.95;;;;;;;;;;4978019;28;20041;-56
2022/12/20 07:06:38;;;;;;;7.53;4.65;;;;;;;;;;4974009;28;20577;-56
2022/12/20 07:09:04;;;;;;;10.75;4.18;;;;;;;;;;4977907;28;20578;-56
2022/12/20 07:11:29;;;;;;;11.82;4.35;;;;;;;;;;4970491;28;20666;-55
2022/12/20 07:13:55;;;;;;;7.25;4.13;;;;;;;;;;4974676;28;20531;-57
2022/12/20 07:16:20;;;;;;;10.32;3.88;;;;;;;;;;4974997;28;20038;-56
2022/12/20 07:18:49;;;;;;;14.07;7.70;;;;;;;;;;4957286;28;20023;-58
2022/12/20 07:21:16;;;;;;;10.02;4.35;;;;;;;;;;4973066;28;20363;-58
2022/12/20 07:23:41;;;;;;;9.50;4.70;;;;;;;;;;4972748;28;20050;-57
2022/12/20 07:26:06;;;;;;;7.65;4.82;;;;;;;;;;4974128;28;20035;-56
2022/12/20 07:28:32;;;;;;;6.68;4.25;;;;;;;;;;4975395;28;20434;-57
2022/12/20 07:30:59;;;;;;;9.80;4.55;;;;;;;;;;4973807;28;20026;-56
2022/12/20 07:33:24;;;;;;;9.88;4.85;;;;;;;;;;4977669;28;20216;-57
2022/12/20 07:35:50;;;;;;;10.13;5.47;;;;;;;;;;4978159;28;20080;-57
2022/12/20 07:38:16;;;;;;;9.07;4.18;;;;;;;;;;4974720;28;20109;-57
2022/12/20 07:40:41;;;;;;;13.82;4.85;;;;;;;;;;4951191;28;20389;-56
2022/12/20 07:43:07;;;;;;;10.98;4.28;;;;;;;;;;4974991;28;20033;-57
2022/12/20 07:45:33;;;;;;;13.55;6.95;;;;;;;;;;4979153;28;20038;-56
2022/12/20 07:47:58;;;;;;;8.52;4.40;;;;;;;;;;4974065;28;20049;-57
2022/12/20 07:50:23;;;;;;;9.48;4.60;;;;;;;;;;4979409;28;20134;-57
2022/12/20 07:52:48;;;;;;;7.10;4.20;;;;;;;;;;4969303;28;20030;-57
2022/12/20 07:55:14;;;;;;;12.65;4.60;;;;;;;;;;4973996;28;20376;-57
2022/12/20 07:57:40;;;;;;;9.10;5.78;;;;;;;;;;4981556;28;20093;-57
2022/12/20 08:00:06;;;;;;;9.45;5.35;;;;;;;;;;4976640;28;20107;-55
2022/12/20 08:02:33;;;;;;;6.72;4.70;;;;;;;;;;4962638;28;20115;-57
2022/12/20 08:04:58;;;;;;;9.35;5.38;;;;;;;;;;4951546;28;20045;-57
2022/12/20 08:07:23;;;;;;;7.90;4.20;;;;;;;;;;4981243;28;20022;-56
2022/12/20 08:09:49;;;;;;;6.53;4.53;;;;;;;;;;4978206;28;20090;-56
2022/12/20 08:12:15;;;;;;;9.95;4.35;;;;;;;;;;4965507;28;20023;-56
2022/12/20 08:14:40;;;;;;;10.00;5.00;;;;;;;;;;4979840;28;20026;-56
2022/12/20 08:17:05;;;;;;;6.90;4.28;;;;;;;;;;4960679;28;20074;-58
2022/12/20 08:19:30;;;;;;;13.98;4.53;;;;;;;;;;4983110;28;20065;-55
2022/12/20 08:21:56;;;;;;;7.32;3.90;;;;;;;;;;4978303;28;20058;-56
2022/12/20 08:24:21;;;;;;;11.10;4.60;;;;;;;;;;4979132;28;20046;-56
2022/12/20 08:26:46;;;;;;;7.05;4.60;;;;;;;;;;4978089;28;20037;-57
2022/12/20 08:29:11;;;;;;;6.85;4.30;;;;;;;;;;4978362;28;20366;-56
2022/12/20 08:31:37;;;;;;;9.55;4.10;;;;;;;;;;4971751;28;20334;-58
2022/12/20 08:34:02;;;;;;;8.57;4.45;;;;;;;;;;4977367;28;20019;-57
2022/12/20 08:36:28;;;;;;;7.80;4.65;;;;;;;;;;4979912;28;20516;-55
2022/12/20 08:38:53;;;;;;;10.30;5.32;;;;;;;;;;4978172;28;20774;-57
2022/12/20 08:41:18;;;;;;;6.65;4.38;;;;;;;;;;4977081;28;20046;-56
2022/12/20 08:43:44;;;;;;;11.80;6.40;;;;;;;;;;4978484;28;20030;-56
2022/12/20 08:46:09;;;;;;;31.00;21.27;;;;;;;;;;4971702;28;20053;-56
2022/12/20 08:48:35;;;;;;;12.52;8.52;;;;;;;;;;4961945;28;20035;-57
2022/12/20 08:51:01;;;;;;;14.95;5.90;;;;;;;;;;4978701;28;20050;-56
2022/12/20 08:53:27;;;;;;;15.15;9.13;;;;;;;;;;4979834;28;20595;-56
2022/12/20 08:55:52;;;;;;;11.65;4.65;;;;;;;;;;4982025;28;20071;-56
2022/12/20 08:58:17;;;;;;;10.88;4.35;;;;;;;;;;4972162;28;20023;-56
2022/12/20 09:00:43;;;;;;;11.85;4.13;;;;;;;;;;4973020;28;20030;-57
2022/12/20 09:03:10;;;;;;;6.15;3.63;;;;;;;;;;4972113;28;20030;-57
2022/12/20 09:05:35;;;;;;;7.28;3.70;;;;;;;;;;4982011;28;20092;-55
2022/12/20 09:08:00;;;;;;;7.13;3.33;;;;;;;;;;4978607;28;20027;-56
2022/12/20 09:10:26;;;;;;;10.43;5.03;;;;;;;;;;4979266;28;20023;-56
2022/12/20 09:12:51;;;;;;;10.13;4.25;;;;;;;;;;4971997;28;20122;-56
2022/12/20 09:15:16;;;;;;;7.43;5.03;;;;;;;;;;4983131;28;20035;-56
2022/12/20 09:17:42;;;;;;;8.52;4.03;;;;;;;;;;4969424;28;20445;-57
2022/12/20 09:20:07;;;;;;;8.45;4.30;;;;;;;;;;4955687;28;20030;-57
2022/12/20 09:22:33;;;;;;;7.47;4.15;;;;;;;;;;4979875;28;20106;-57
2022/12/20 09:24:58;;;;;;;7.63;3.72;;;;;;;;;;4974623;28;20089;-57
2022/12/20 09:27:23;;;;;;;5.05;3.10;;;;;;;;;;4976987;28;20057;-57
2022/12/20 09:29:48;;;;;;;6.40;3.13;;;;;;;;;;4974835;28;20473;-56
2022/12/20 09:32:13;;;;;;;5.40;2.60;;;;;;;;;;4975174;28;20033;-55
2022/12/20 09:34:39;;;;;;;5.13;3.30;;;;;;;;;;4967338;28;20022;-56
2022/12/20 09:37:04;;;;;;;6.32;2.88;;;;;;;;;;4965333;28;20446;-56
2022/12/20 09:39:29;;;;;;;6.60;3.30;;;;;;;;;;4980445;28;20027;-57
2022/12/20 09:41:55;;;;;;;7.30;3.15;;;;;;;;;;4978167;28;20030;-57
2022/12/20 09:44:23;;;;;;;7.25;2.92;;;;;;;;;;4957991;28;20033;-58
2022/12/20 09:46:53;;;;;;;7.38;3.38;;;;;;;;;;4973999;28;20039;-57
2022/12/20 09:49:19;;;;;;;6.30;3.47;;;;;;;;;;4962255;28;20068;-56
2022/12/20 09:52:04;;;;;;;8.50;4.07;;;;;;;;;;4973398;28;20043;-56
2022/12/20 09:54:29;;;;;;;6.18;3.03;;;;;;;;;;4961734;28;20027;-57
2022/12/20 09:56:57;;;;;;;10.57;3.60;;;;;;;;;;4976004;28;20026;-56
2022/12/20 09:59:22;;;;;;;6.07;3.05;;;;;;;;;;4958970;28;20449;-56
2022/12/20 10:01:48;;;;;;;7.30;2.95;;;;;;;;;;4969864;28;20035;-56
2022/12/20 10:04:14;;;;;;;6.35;3.25;;;;;;;;;;4973941;28;20094;-55
2022/12/20 10:06:55;;;;;;;5.80;2.97;;;;;;;;;;4973319;28;20045;-55
2022/12/20 10:09:40;;;;;;;9.52;3.25;;;;;;;;;;4964749;28;20053;-55
2022/12/20 10:12:18;;;;;;;5.18;3.20;;;;;;;;;;4967700;28;20660;-57
2022/12/20 10:14:43;;;;;;;7.13;3.20;;;;;;;;;;4975953;28;20085;-55
2022/12/20 10:17:16;;;;;;;6.13;3.30;;;;;;;;;;4979134;28;20023;-56
2022/12/20 10:20:00;;;;;;;6.93;3.63;;;;;;;;;;4960450;28;20038;-57
2022/12/20 10:22:31;;;;;;;6.72;3.42;;;;;;;;;;4957797;28;20026;-56
2022/12/20 10:25:17;;;;;;;7.78;3.22;;;;;;;;;;4973628;28;20079;-56
2022/12/20 10:27:43;;;;;;;9.27;3.00;;;;;;;;;;4976644;28;20054;-57
2022/12/20 10:30:15;;;;;;;5.43;2.92;;;;;;;;;;4972732;28;20319;-57
2022/12/20 10:32:42;;;;;;;5.78;2.65;;;;;;;;;;4972255;28;20272;-55
2022/12/20 10:35:10;;;;;;;11.60;2.80;;;;;;;;;;4968775;28;20034;-56
2022/12/20 10:37:36;;;;;;;4.40;2.75;;;;;;;;;;4972484;28;20060;-56
2022/12/20 10:40:01;;;;;;;7.47;3.25;;;;;;;;;;4953720;28;20026;-55
2022/12/20 10:42:39;;;;;;;6.15;2.78;;;;;;;;;;4967778;28;20027;-56
2022/12/20 10:45:25;;;;;;;8.02;3.97;;;;;;;;;;4969829;28;20034;-57
2022/12/20 10:47:53;;;;;;;6.97;2.90;;;;;;;;;;4969962;28;20350;-56
2022/12/20 10:50:19;;;;;;;6.18;3.03;;;;;;;;;;4975500;28;20046;-55
2022/12/20 10:52:44;;;;;;;9.73;3.80;;;;;;;;;;4959132;28;20034;-56
2022/12/20 10:55:29;;;;;;;9.10;2.80;;;;;;;;;;4972120;28;20030;-55
2022/12/20 10:57:54;;;;;;;6.63;2.95;;;;;;;;;;4960954;28;20155;-56
2022/12/20 11:00:26;;;;;;;5.65;2.85;;;;;;;;;;4972638;28;20805;-55
2022/12/20 11:03:24;;;;;;;7.30;3.10;;;;;;;;;;4964502;28;20086;-56
2022/12/20 11:06:00;;;;;;;7.85;2.60;;;;;;;;;;4933987;28;20046;-57
2022/12/20 11:08:26;;;;;;;4.10;2.65;;;;;;;;;;4975508;28;20034;-56
2022/12/20 11:11:08;;;;;;;8.75;3.20;;;;;;;;;;4971697;28;20381;-56
2022/12/20 11:13:34;;;;;;;7.65;3.15;;;;;;;;;;4977499;28;20483;-55
2022/12/20 11:16:00;;;;;;;9.95;3.30;;;;;;;;;;4982642;28;20030;-56
2022/12/20 11:18:28;;;;;;;4.72;2.90;;;;;;;;;;4971354;28;20022;-55
2022/12/20 11:20:57;;;;;;;5.82;2.65;;;;;;;;;;4969494;28;20061;-56
2022/12/20 11:23:25;;;;;;;5.93;2.83;;;;;;;;;;4962880;28;20101;-56
2022/12/20 11:26:09;;;;;;;8.10;4.97;;;;;;;;;;4974159;28;20443;-56
2022/12/20 11:28:50;;;;;;;19.70;13.20;;;;;;;;;;4969673;28;20264;-54
2022/12/20 11:31:26;;;;;;;9.00;4.13;;;;;;;;;;4978897;28;20383;-56
2022/12/20 11:34:06;;;;;;;6.10;3.28;;;;;;;;;;4962105;28;20027;-56
2022/12/20 11:36:32;;;;;;;7.60;4.13;;;;;;;;;;4969190;28;20027;-56
2022/12/20 11:39:20;;;;;;;9.65;5.45;;;;;;;;;;4972640;28;20026;-57
2022/12/20 11:41:51;;;;;;;10.15;4.72;;;;;;;;;;4961719;28;20039;-57
2022/12/20 11:44:20;;;;;;;8.75;5.00;;;;;;;;;;4975032;28;20014;-56
2022/12/20 11:46:48;;;;;;;8.90;3.75;;;;;;;;;;4960196;28;20038;-56
2022/12/20 11:49:34;;;;;;;7.22;2.97;;;;;;;;;;4967508;28;20018;-57
2022/12/20 11:52:09;;;;;;;6.30;3.22;;;;;;;;;;4956278;28;20404;-57
2022/12/20 11:54:42;;;;;;;6.82;3.55;;;;;;;;;;4968296;28;20093;-54
2022/12/20 11:57:16;;;;;;;4.90;2.67;;;;;;;;;;4949223;28;20045;-59
2022/12/20 11:59:41;;;;;;;4.88;2.60;;;;;;;;;;4970818;28;20026;-57
2022/12/20 12:02:14;;;;;;;6.95;3.10;;;;;;;;;;4969415;28;20030;-58
2022/12/20 12:04:56;;;;;;;6.22;2.90;;;;;;;;;;4960112;28;20058;-57
2022/12/20 12:07:39;;;;;;;7.68;2.75;;;;;;;;;;4958181;28;20109;-57
2022/12/20 12:10:23;;;;;;;5.57;2.50;;;;;;;;;;4954345;28;20081;-56
2022/12/20 12:12:52;;;;;;;6.88;2.45;;;;;;;;;;4970043;28;20191;-57
2022/12/20 12:15:20;;;;;;;8.18;3.17;;;;;;;;;;4947173;28;20041;-58
2022/12/20 12:17:47;;;;;;;6.03;3.13;;;;;;;;;;4949819;28;20110;-56
2022/12/20 12:20:15;;;;;;;9.05;2.83;;;;;;;;;;4976151;28;20049;-57
2022/12/20 12:22:40;;;;;;;4.70;2.28;;;;;;;;;;4968939;28;20046;-57
2022/12/20 12:25:08;;;;;;;10.43;2.78;;;;;;;;;;4976766;28;20398;-55
2022/12/20 12:27:33;;;;;;;5.90;2.42;;;;;;;;;;4965197;28;20133;-54
2022/12/20 12:29:59;;;;;;;5.97;2.60;;;;;;;;;;4971664;28;20224;-55
2022/12/20 12:32:25;;;;;;;6.15;2.53;;;;;;;;;;4967740;28;20105;-55
2022/12/20 12:35:02;;;;;;;5.65;2.78;;;;;;;;;;4976856;28;20352;-58
2022/12/20 12:37:48;;;;;;;4.72;2.50;;;;;;;;;;4974002;28;20102;-55
2022/12/20 12:40:32;;;;;;;8.57;3.53;;;;;;;;;;4975029;28;20093;-56
2022/12/20 12:42:57;;;;;;;7.97;3.20;;;;;;;;;;4971846;28;20073;-55
2022/12/20 12:45:26;;;;;;;6.35;2.80;;;;;;;;;;4975689;28;20153;-55
2022/12/20 12:48:06;;;;;;;9.40;2.90;;;;;;;;;;4952513;28;20065;-55
2022/12/20 12:50:35;;;;;;;8.50;3.20;;;;;;;;;;4972725;28;20532;-57
2022/12/20 12:53:05;;;;;;;10.77;4.53;;;;;;;;;;4981606;28;20130;-56
2022/12/20 12:55:43;;;;;;;8.25;4.90;;;;;;;;;;4978098;28;20042;-56
2022/12/20 12:58:29;;;;;;;7.00;3.67;;;;;;;;;;4978824;28;20066;-56
2022/12/20 13:00:54;;;;;;;6.75;3.40;;;;;;;;;;4979474;28;20479;-55
2022/12/20 13:03:38;;;;;;;7.38;3.40;;;;;;;;;;4980246;28;20018;-56
2022/12/20 13:06:22;;;;;;;6.50;2.97;;;;;;;;;;4976507;28;20034;-56
2022/12/20 13:09:02;;;;;;;12.88;6.30;;;;;;;;;;4979905;28;20026;-56
2022/12/20 13:11:35;;;;;;;36.83;12.18;;;;;;;;;;4980561;28;20022;-58
2022/12/20 13:14:19;;;;;;;4.57;2.72;;;;;;;;;;4981285;28;20060;-55
2022/12/20 13:16:44;;;;;;;3.80;2.60;;;;;;;;;;4976413;28;20440;-55
2022/12/20 13:19:29;;;;;;;9.38;4.88;;;;;;;;;;4979965;28;20018;-55
2022/12/20 13:21:56;;;;;;;14.88;6.70;;;;;;;;;;4974884;28;20035;-56
2022/12/20 13:24:43;;;;;;;11.90;5.40;;;;;;;;;;4953593;28;20800;-56
2022/12/20 13:27:32;;;;;;;8.18;3.42;;;;;;;;;;4942483;28;20774;-55
2022/12/20 13:30:06;;;;;;;9.35;4.18;;;;;;;;;;4935817;28;20031;-55
2022/12/20 13:32:46;;;;;;;10.52;4.50;;;;;;;;;;4942005;28;20848;-56
2022/12/20 13:35:11;;;;;;;;;;;;;;;;;;4939515;28;20030;-55
2022/12/20 13:37:56;;;;;;;8.07;4.57;;;;;;;;;;4937274;28;20005;-55
2022/12/20 13:40:41;;;;;;;12.02;3.88;;;;;;;;;;4941569;28;20608;-56
2022/12/20 13:43:09;;;;;;;8.98;5.22;;;;;;;;;;4935837;28;20130;-58
2022/12/20 13:45:35;;;;;;;10.60;6.20;;;;;;;;;;4940296;28;20051;-55
2022/12/20 13:48:00;;;;;;;21.23;11.48;;;;;;;;;;4933666;28;20023;-57
2022/12/20 13:50:30;;;;;;;7.45;4.13;;;;;;;;;;4950371;28;20031;-54
2022/12/20 13:52:56;;;;;;;7.20;4.07;;;;;;;;;;4943019;28;20054;-55
2022/12/20 13:55:26;;;;;;;8.57;4.07;;;;;;;;;;4943195;28;20034;-55
2022/12/20 13:57:51;;;;;;;7.32;4.57;;;;;;;;;;4942416;28;20485;-56
2022/12/20 14:00:24;;;;;;;8.20;4.70;;;;;;;;;;4943407;28;20037;-55
2022/12/20 14:02:49;;;;;;;9.43;5.32;;;;;;;;;;4940250;28;20109;-56
2022/12/20 14:05:16;;;;;;;10.35;5.50;;;;;;;;;;4941341;28;20362;-55
2022/12/20 14:07:42;;;;;;;6.25;3.72;;;;;;;;;;4948103;28;20027;-56
2022/12/20 14:10:21;;;;;;;11.60;5.18;;;;;;;;;;4941723;28;20030;-56
2022/12/20 14:12:46;;;;;;;19.25;5.72;;;;;;;;;;4944814;28;20131;-55
2022/12/20 14:15:21;;;;;;;15.20;7.00;;;;;;;;;;4945826;28;20074;-55
2022/12/20 14:17:46;;;;;;;6.97;3.50;;;;;;;;;;4940266;28;20019;-55
2022/12/20 14:20:14;;;;;;;8.13;4.60;;;;;;;;;;4962903;28;20026;-55
2022/12/20 14:22:49;;;;;;;6.93;3.90;;;;;;;;;;4938936;28;20023;-55
2022/12/20 14:25:15;;;;;;;9.35;5.22;;;;;;;;;;4959489;28;20039;-56
2022/12/20 14:27:43;;;;;;;10.32;5.68;;;;;;;;;;4958030;28;20065;-56
2022/12/20 14:30:28;;;;;;;8.85;4.25;;;;;;;;;;4957374;28;20522;-57
2022/12/20 14:32:54;;;;;;;9.07;4.65;;;;;;;;;;4958424;28;20118;-55
2022/12/20 14:35:19;;;;;;;6.88;3.70;;;;;;;;;;4957073;28;20037;-56
2022/12/20 14:37:51;;;;;;;22.85;13.88;;;;;;;;;;4960208;28;20031;-55
2022/12/20 14:40:17;;;;;;;11.27;8.20;;;;;;;;;;4957477;28;20029;-56
2022/12/20 14:42:42;;;;;;;10.75;4.07;;;;;;;;;;4957244;28;20034;-56
2022/12/20 14:45:14;;;;;;;11.40;6.68;;;;;;;;;;4962906;28;20027;-55
2022/12/20 14:47:59;;;;;;;11.63;8.40;;;;;;;;;;4956212;28;20035;-55
2022/12/20 14:50:33;;;;;;;8.73;4.40;;;;;;;;;;4959997;28;20022;-56
2022/12/20 14:52:59;;;;;;;7.07;3.85;;;;;;;;;;4957105;28;20074;-56